sensor_id;sensor_type;location;lat;lon;timestamp;temperature;humidity
21787;DHT22;11055;50.870;4.316;2023-05-24T00:01:56;12.80;99.90
21787;DHT22;11055;50.870;4.316;2023-05-24T00:04:22;12.70;99.90
21787;DHT22;11055;50.870;4.316;2023-05-24T00:06:50;12.70;99.90
21787;DHT22;11055;50.870;4.316;2023-05-24T00:09:15;12.60;99.90
21787;DHT22;11055;50.870;4.316;2023-05-24T00:11:41;12.80;99.90
21787;DHT22;11055;50.870;4.316;2023-05-24T00:14:07;12.70;99.90
21787;DHT22;11055;50.870;4.316;2023-05-24T00:16:32;12.70;99.90
21787;DHT22;11055;50.870;4.316;2023-05-24T00:18:59;12.70;99.90
21787;DHT22;11055;50.870;4.316;2023-05-24T00:21:25;12.60;99.90
21787;DHT22;11055;50.870;4.316;2023-05-24T00:23:51;12.80;99.90
21787;DHT22;11055;50.870;4.316;2023-05-24T00:26:16;12.80;99.90
21787;DHT22;11055;50.870;4.316;2023-05-24T00:28:42;12.70;99.90
21787;DHT22;11055;50.870;4.316;2023-05-24T00:31:08;12.80;99.90
21787;DHT22;11055;50.870;4.316;2023-05-24T00:33:33;12.80;99.90
21787;DHT22;11055;50.870;4.316;2023-05-24T00:35:59;12.80;99.90
21787;DHT22;11055;50.870;4.316;2023-05-24T00:38:25;12.70;99.90
21787;DHT22;11055;50.870;4.316;2023-05-24T00:40:51;12.70;99.90
21787;DHT22;11055;50.870;4.316;2023-05-24T00:43:17;12.70;99.90
21787;DHT22;11055;50.870;4.316;2023-05-24T00:45:44;12.70;99.90
21787;DHT22;11055;50.870;4.316;2023-05-24T00:48:10;12.70;99.90
21787;DHT22;11055;50.870;4.316;2023-05-24T00:50:39;12.70;99.90
21787;DHT22;11055;50.870;4.316;2023-05-24T00:53:05;12.70;99.90
21787;DHT22;11055;50.870;4.316;2023-05-24T00:55:33;12.80;99.90
21787;DHT22;11055;50.870;4.316;2023-05-24T00:57:59;12.80;99.90
21787;DHT22;11055;50.870;4.316;2023-05-24T01:00:26;12.70;99.90
21787;DHT22;11055;50.870;4.316;2023-05-24T01:02:52;12.70;99.90
21787;DHT22;11055;50.870;4.316;2023-05-24T01:05:19;12.80;99.90
21787;DHT22;11055;50.870;4.316;2023-05-24T01:10:33;12.70;99.90
21787;DHT22;11055;50.870;4.316;2023-05-24T01:13:03;12.70;99.90
21787;DHT22;11055;50.870;4.316;2023-05-24T01:18:23;12.70;99.90
21787;DHT22;11055;50.870;4.316;2023-05-24T01:24:11;12.60;99.90
21787;DHT22;11055;50.870;4.316;2023-05-24T01:29:19;12.60;99.90
21787;DHT22;11055;50.870;4.316;2023-05-24T01:31:45;12.60;99.90
21787;DHT22;11055;50.870;4.316;2023-05-24T01:34:11;12.60;99.90
21787;DHT22;11055;50.870;4.316;2023-05-24T01:36:37;12.50;99.90
21787;DHT22;11055;50.870;4.316;2023-05-24T01:39:02;12.60;99.90
21787;DHT22;11055;50.870;4.316;2023-05-24T01:41:45;12.60;99.90
21787;DHT22;11055;50.870;4.316;2023-05-24T01:47:09;12.60;99.90
21787;DHT22;11055;50.870;4.316;2023-05-24T01:49:39;12.40;99.90
21787;DHT22;11055;50.870;4.316;2023-05-24T01:52:21;12.40;99.90
21787;DHT22;11055;50.870;4.316;2023-05-24T01:54:51;12.40;99.90
21787;DHT22;11055;50.870;4.316;2023-05-24T01:57:18;12.40;99.90
21787;DHT22;11055;50.870;4.316;2023-05-24T01:59:46;12.40;99.90
21787;DHT22;11055;50.870;4.316;2023-05-24T02:02:12;12.40;99.90
21787;DHT22;11055;50.870;4.316;2023-05-24T02:04:38;12.40;99.90
21787;DHT22;11055;50.870;4.316;2023-05-24T02:07:04;12.40;99.90
21787;DHT22;11055;50.870;4.316;2023-05-24T02:09:29;12.40;99.90
21787;DHT22;11055;50.870;4.316;2023-05-24T02:11:55;12.40;99.90
21787;DHT22;11055;50.870;4.316;2023-05-24T02:14:21;12.40;99.90
21787;DHT22;11055;50.870;4.316;2023-05-24T02:16:46;12.40;99.90
21787;DHT22;11055;50.870;4.316;2023-05-24T02:19:13;12.40;99.90
21787;DHT22;11055;50.870;4.316;2023-05-24T02:21:38;12.50;99.90
21787;DHT22;11055;50.870;4.316;2023-05-24T02:24:05;12.40;99.90
21787;DHT22;11055;50.870;4.316;2023-05-24T02:26:32;12.50;99.90
21787;DHT22;11055;50.870;4.316;2023-05-24T02:28:58;12.50;99.90
21787;DHT22;11055;50.870;4.316;2023-05-24T02:31:23;12.60;99.90
21787;DHT22;11055;50.870;4.316;2023-05-24T02:33:54;12.50;99.90
21787;DHT22;11055;50.870;4.316;2023-05-24T02:36:19;12.50;99.90
21787;DHT22;11055;50.870;4.316;2023-05-24T02:38:50;12.40;99.90
21787;DHT22;11055;50.870;4.316;2023-05-24T02:41:16;12.50;99.90
21787;DHT22;11055;50.870;4.316;2023-05-24T02:43:46;12.50;99.90
21787;DHT22;11055;50.870;4.316;2023-05-24T02:46:13;12.50;99.90
21787;DHT22;11055;50.870;4.316;2023-05-24T02:48:39;12.50;99.90
21787;DHT22;11055;50.870;4.316;2023-05-24T02:51:05;12.60;99.90
21787;DHT22;11055;50.870;4.316;2023-05-24T02:53:31;12.50;99.90
21787;DHT22;11055;50.870;4.316;2023-05-24T02:55:58;12.60;99.90
21787;DHT22;11055;50.870;4.316;2023-05-24T02:58:24;12.60;99.90
21787;DHT22;11055;50.870;4.316;2023-05-24T03:00:49;12.50;99.90
21787;DHT22;11055;50.870;4.316;2023-05-24T03:03:15;12.60;99.90
21787;DHT22;11055;50.870;4.316;2023-05-24T03:05:41;12.60;99.90
21787;DHT22;11055;50.870;4.316;2023-05-24T03:08:07;12.50;99.90
21787;DHT22;11055;50.870;4.316;2023-05-24T03:10:34;12.60;99.90
21787;DHT22;11055;50.870;4.316;2023-05-24T03:12:59;12.60;99.90
21787;DHT22;11055;50.870;4.316;2023-05-24T03:15:25;12.70;99.90
21787;DHT22;11055;50.870;4.316;2023-05-24T03:17:51;12.50;99.90
21787;DHT22;11055;50.870;4.316;2023-05-24T03:20:17;12.50;99.90
21787;DHT22;11055;50.870;4.316;2023-05-24T03:22:45;12.60;99.90
21787;DHT22;11055;50.870;4.316;2023-05-24T03:25:11;12.60;99.90
21787;DHT22;11055;50.870;4.316;2023-05-24T03:27:36;12.50;99.90
21787;DHT22;11055;50.870;4.316;2023-05-24T03:30:02;12.50;99.90
21787;DHT22;11055;50.870;4.316;2023-05-24T03:32:31;12.40;99.90
21787;DHT22;11055;50.870;4.316;2023-05-24T03:34:57;12.40;99.90
21787;DHT22;11055;50.870;4.316;2023-05-24T03:37:25;12.30;99.90
21787;DHT22;11055;50.870;4.316;2023-05-24T03:39:50;12.30;99.90
21787;DHT22;11055;50.870;4.316;2023-05-24T03:42:16;12.20;99.90
21787;DHT22;11055;50.870;4.316;2023-05-24T03:44:42;12.20;99.90
21787;DHT22;11055;50.870;4.316;2023-05-24T03:47:08;12.20;99.90
21787;DHT22;11055;50.870;4.316;2023-05-24T03:49:34;12.20;99.90
21787;DHT22;11055;50.870;4.316;2023-05-24T03:51:59;12.20;99.90
21787;DHT22;11055;50.870;4.316;2023-05-24T03:54:25;12.30;99.90
21787;DHT22;11055;50.870;4.316;2023-05-24T03:56:51;12.20;99.90
21787;DHT22;11055;50.870;4.316;2023-05-24T03:59:18;12.40;99.90
21787;DHT22;11055;50.870;4.316;2023-05-24T04:01:43;12.30;99.90
21787;DHT22;11055;50.870;4.316;2023-05-24T04:04:09;12.30;99.90
21787;DHT22;11055;50.870;4.316;2023-05-24T04:06:35;12.30;99.90
21787;DHT22;11055;50.870;4.316;2023-05-24T04:09:01;12.40;99.90
21787;DHT22;11055;50.870;4.316;2023-05-24T04:11:29;12.30;99.90
21787;DHT22;11055;50.870;4.316;2023-05-24T04:13:55;12.30;99.90
21787;DHT22;11055;50.870;4.316;2023-05-24T04:16:22;12.20;99.90
21787;DHT22;11055;50.870;4.316;2023-05-24T04:18:54;12.20;99.90
21787;DHT22;11055;50.870;4.316;2023-05-24T04:21:20;12.20;99.90
21787;DHT22;11055;50.870;4.316;2023-05-24T04:23:46;12.20;99.90
21787;DHT22;11055;50.870;4.316;2023-05-24T04:26:12;11.90;99.90
21787;DHT22;11055;50.870;4.316;2023-05-24T04:28:38;11.70;99.90
21787;DHT22;11055;50.870;4.316;2023-05-24T04:31:05;11.40;99.90
21787;DHT22;11055;50.870;4.316;2023-05-24T04:33:31;11.30;99.90
21787;DHT22;11055;50.870;4.316;2023-05-24T04:35:57;11.30;99.90
21787;DHT22;11055;50.870;4.316;2023-05-24T04:38:25;11.20;99.90
21787;DHT22;11055;50.870;4.316;2023-05-24T04:40:54;11.20;99.90
21787;DHT22;11055;50.870;4.316;2023-05-24T04:43:26;11.10;99.90
21787;DHT22;11055;50.870;4.316;2023-05-24T04:45:53;11.10;99.90
21787;DHT22;11055;50.870;4.316;2023-05-24T04:48:22;11.20;99.90
21787;DHT22;11055;50.870;4.316;2023-05-24T04:50:53;11.10;99.90
21787;DHT22;11055;50.870;4.316;2023-05-24T04:53:19;11.10;99.90
21787;DHT22;11055;50.870;4.316;2023-05-24T04:55:46;11.00;99.90
21787;DHT22;11055;50.870;4.316;2023-05-24T04:58:12;11.10;99.90
21787;DHT22;11055;50.870;4.316;2023-05-24T05:00:38;11.00;99.90
21787;DHT22;11055;50.870;4.316;2023-05-24T05:03:03;11.10;99.90
21787;DHT22;11055;50.870;4.316;2023-05-24T05:05:29;11.30;99.90
21787;DHT22;11055;50.870;4.316;2023-05-24T05:07:55;11.20;99.90
21787;DHT22;11055;50.870;4.316;2023-05-24T05:10:21;11.20;99.90
21787;DHT22;11055;50.870;4.316;2023-05-24T05:12:47;11.20;99.90
21787;DHT22;11055;50.870;4.316;2023-05-24T05:15:13;11.20;99.90
21787;DHT22;11055;50.870;4.316;2023-05-24T05:17:39;11.30;99.90
21787;DHT22;11055;50.870;4.316;2023-05-24T05:20:05;11.50;99.90
21787;DHT22;11055;50.870;4.316;2023-05-24T05:22:31;11.60;99.90
21787;DHT22;11055;50.870;4.316;2023-05-24T05:24:57;11.80;99.90
21787;DHT22;11055;50.870;4.316;2023-05-24T05:27:22;11.80;99.90
21787;DHT22;11055;50.870;4.316;2023-05-24T05:29:48;11.60;99.90
21787;DHT22;11055;50.870;4.316;2023-05-24T05:32:14;11.70;99.90
21787;DHT22;11055;50.870;4.316;2023-05-24T05:34:40;11.70;99.90
21787;DHT22;11055;50.870;4.316;2023-05-24T05:37:06;11.50;99.90
21787;DHT22;11055;50.870;4.316;2023-05-24T05:39:32;11.40;99.90
21787;DHT22;11055;50.870;4.316;2023-05-24T05:41:57;11.40;99.90
21787;DHT22;11055;50.870;4.316;2023-05-24T05:44:23;11.50;99.90
21787;DHT22;11055;50.870;4.316;2023-05-24T05:46:49;11.70;99.90
21787;DHT22;11055;50.870;4.316;2023-05-24T05:49:15;11.90;99.90
21787;DHT22;11055;50.870;4.316;2023-05-24T05:51:45;12.00;99.90
21787;DHT22;11055;50.870;4.316;2023-05-24T05:54:11;12.30;99.90
21787;DHT22;11055;50.870;4.316;2023-05-24T05:56:43;12.00;99.90
21787;DHT22;11055;50.870;4.316;2023-05-24T05:59:13;11.60;99.90
21787;DHT22;11055;50.870;4.316;2023-05-24T06:01:43;11.70;99.90
21787;DHT22;11055;50.870;4.316;2023-05-24T06:04:11;11.80;99.90
21787;DHT22;11055;50.870;4.316;2023-05-24T06:06:37;11.90;99.90
21787;DHT22;11055;50.870;4.316;2023-05-24T06:09:03;12.00;99.90
21787;DHT22;11055;50.870;4.316;2023-05-24T06:11:29;12.10;99.90
21787;DHT22;11055;50.870;4.316;2023-05-24T06:13:54;12.20;99.90
21787;DHT22;11055;50.870;4.316;2023-05-24T06:16:20;12.20;99.90
21787;DHT22;11055;50.870;4.316;2023-05-24T06:18:49;12.20;99.90
21787;DHT22;11055;50.870;4.316;2023-05-24T06:21:16;12.30;99.90
21787;DHT22;11055;50.870;4.316;2023-05-24T06:23:42;12.50;99.90
21787;DHT22;11055;50.870;4.316;2023-05-24T06:26:08;12.60;99.90
21787;DHT22;11055;50.870;4.316;2023-05-24T06:28:35;12.70;99.90
21787;DHT22;11055;50.870;4.316;2023-05-24T06:31:04;12.80;99.90
21787;DHT22;11055;50.870;4.316;2023-05-24T06:33:30;12.80;99.90
21787;DHT22;11055;50.870;4.316;2023-05-24T06:35:56;12.60;99.90
21787;DHT22;11055;50.870;4.316;2023-05-24T06:38:22;12.60;99.90
21787;DHT22;11055;50.870;4.316;2023-05-24T06:40:48;12.60;99.90
21787;DHT22;11055;50.870;4.316;2023-05-24T06:43:14;12.60;99.90
21787;DHT22;11055;50.870;4.316;2023-05-24T06:45:40;12.60;99.90
21787;DHT22;11055;50.870;4.316;2023-05-24T06:48:06;12.70;99.90
21787;DHT22;11055;50.870;4.316;2023-05-24T06:50:32;12.90;99.90
21787;DHT22;11055;50.870;4.316;2023-05-24T06:52:57;13.00;99.90
21787;DHT22;11055;50.870;4.316;2023-05-24T06:55:23;13.10;99.90
21787;DHT22;11055;50.870;4.316;2023-05-24T06:57:49;13.20;99.90
21787;DHT22;11055;50.870;4.316;2023-05-24T07:00:15;13.30;99.90
21787;DHT22;11055;50.870;4.316;2023-05-24T07:02:41;13.40;99.90
21787;DHT22;11055;50.870;4.316;2023-05-24T07:05:07;13.40;99.90
21787;DHT22;11055;50.870;4.316;2023-05-24T07:07:40;13.40;99.90
21787;DHT22;11055;50.870;4.316;2023-05-24T07:10:07;13.60;99.90
21787;DHT22;11055;50.870;4.316;2023-05-24T07:12:33;13.40;99.90
21787;DHT22;11055;50.870;4.316;2023-05-24T07:14:59;13.60;99.90
21787;DHT22;11055;50.870;4.316;2023-05-24T07:17:24;13.70;99.90
21787;DHT22;11055;50.870;4.316;2023-05-24T07:19:50;13.90;99.90
21787;DHT22;11055;50.870;4.316;2023-05-24T07:22:16;13.90;99.90
21787;DHT22;11055;50.870;4.316;2023-05-24T07:24:42;13.80;99.90
21787;DHT22;11055;50.870;4.316;2023-05-24T07:27:08;13.60;99.90
21787;DHT22;11055;50.870;4.316;2023-05-24T07:29:33;13.70;99.90
21787;DHT22;11055;50.870;4.316;2023-05-24T07:31:59;13.90;99.90
21787;DHT22;11055;50.870;4.316;2023-05-24T07:34:25;13.90;99.90
21787;DHT22;11055;50.870;4.316;2023-05-24T07:36:57;14.10;99.90
21787;DHT22;11055;50.870;4.316;2023-05-24T07:39:24;14.30;99.90
21787;DHT22;11055;50.870;4.316;2023-05-24T07:41:52;14.40;99.90
21787;DHT22;11055;50.870;4.316;2023-05-24T07:44:18;14.50;99.90
21787;DHT22;11055;50.870;4.316;2023-05-24T07:46:44;14.50;99.90
21787;DHT22;11055;50.870;4.316;2023-05-24T07:49:10;14.60;99.90
21787;DHT22;11055;50.870;4.316;2023-05-24T07:51:36;14.50;99.90
21787;DHT22;11055;50.870;4.316;2023-05-24T07:54:01;14.40;99.90
21787;DHT22;11055;50.870;4.316;2023-05-24T07:56:27;14.40;99.90
21787;DHT22;11055;50.870;4.316;2023-05-24T07:58:53;14.40;99.90
21787;DHT22;11055;50.870;4.316;2023-05-24T08:01:23;14.30;99.90
21787;DHT22;11055;50.870;4.316;2023-05-24T08:03:49;14.40;99.90
21787;DHT22;11055;50.870;4.316;2023-05-24T08:06:15;14.50;99.90
21787;DHT22;11055;50.870;4.316;2023-05-24T08:08:41;14.70;99.90
21787;DHT22;11055;50.870;4.316;2023-05-24T08:11:07;14.70;99.90
21787;DHT22;11055;50.870;4.316;2023-05-24T08:13:32;14.90;99.90
21787;DHT22;11055;50.870;4.316;2023-05-24T08:15:58;15.00;99.90
21787;DHT22;11055;50.870;4.316;2023-05-24T08:18:24;15.20;99.90
21787;DHT22;11055;50.870;4.316;2023-05-24T08:20:50;15.40;99.90
21787;DHT22;11055;50.870;4.316;2023-05-24T08:23:16;15.60;99.90
21787;DHT22;11055;50.870;4.316;2023-05-24T08:25:42;15.30;99.90
21787;DHT22;11055;50.870;4.316;2023-05-24T08:28:07;15.10;99.90
21787;DHT22;11055;50.870;4.316;2023-05-24T08:30:35;15.10;99.90
21787;DHT22;11055;50.870;4.316;2023-05-24T08:33:01;15.40;99.90
21787;DHT22;11055;50.870;4.316;2023-05-24T08:35:27;15.10;99.90
21787;DHT22;11055;50.870;4.316;2023-05-24T08:37:52;15.10;99.90
21787;DHT22;11055;50.870;4.316;2023-05-24T08:40:18;14.90;99.90
21787;DHT22;11055;50.870;4.316;2023-05-24T08:42:45;14.90;99.90
21787;DHT22;11055;50.870;4.316;2023-05-24T08:45:11;14.60;99.90
21787;DHT22;11055;50.870;4.316;2023-05-24T08:47:38;14.90;99.90
21787;DHT22;11055;50.870;4.316;2023-05-24T08:50:05;15.10;99.90
21787;DHT22;11055;50.870;4.316;2023-05-24T08:52:31;15.20;99.90
21787;DHT22;11055;50.870;4.316;2023-05-24T08:55:00;15.30;99.90
21787;DHT22;11055;50.870;4.316;2023-05-24T08:57:27;15.30;99.90
21787;DHT22;11055;50.870;4.316;2023-05-24T08:59:53;15.20;99.90
21787;DHT22;11055;50.870;4.316;2023-05-24T09:02:21;15.20;99.90
21787;DHT22;11055;50.870;4.316;2023-05-24T09:04:48;14.90;99.90
21787;DHT22;11055;50.870;4.316;2023-05-24T09:07:17;14.90;99.90
21787;DHT22;11055;50.870;4.316;2023-05-24T09:09:47;14.80;99.90
21787;DHT22;11055;50.870;4.316;2023-05-24T09:12:16;14.90;99.90
21787;DHT22;11055;50.870;4.316;2023-05-24T09:14:45;15.20;99.90
21787;DHT22;11055;50.870;4.316;2023-05-24T09:17:12;15.50;99.90
21787;DHT22;11055;50.870;4.316;2023-05-24T09:19:43;15.90;99.90
21787;DHT22;11055;50.870;4.316;2023-05-24T09:22:12;16.20;99.90
21787;DHT22;11055;50.870;4.316;2023-05-24T09:24:42;16.50;99.90
21787;DHT22;11055;50.870;4.316;2023-05-24T09:27:08;16.70;99.90
21787;DHT22;11055;50.870;4.316;2023-05-24T09:29:37;16.90;99.90
21787;DHT22;11055;50.870;4.316;2023-05-24T09:32:06;17.00;99.90
21787;DHT22;11055;50.870;4.316;2023-05-24T09:34:42;16.80;99.90
21787;DHT22;11055;50.870;4.316;2023-05-24T09:37:11;16.90;99.90
21787;DHT22;11055;50.870;4.316;2023-05-24T09:39:39;17.00;99.90
21787;DHT22;11055;50.870;4.316;2023-05-24T09:42:06;16.90;99.90
21787;DHT22;11055;50.870;4.316;2023-05-24T09:44:32;17.00;99.90
21787;DHT22;11055;50.870;4.316;2023-05-24T09:47:01;17.30;99.90
21787;DHT22;11055;50.870;4.316;2023-05-24T09:49:29;17.30;99.90
21787;DHT22;11055;50.870;4.316;2023-05-24T09:51:55;17.20;99.90
21787;DHT22;11055;50.870;4.316;2023-05-24T09:54:21;17.30;99.90
21787;DHT22;11055;50.870;4.316;2023-05-24T09:56:48;17.30;99.90
21787;DHT22;11055;50.870;4.316;2023-05-24T09:59:15;17.40;99.90
21787;DHT22;11055;50.870;4.316;2023-05-24T10:01:41;17.00;99.90
21787;DHT22;11055;50.870;4.316;2023-05-24T10:04:08;17.00;99.90
21787;DHT22;11055;50.870;4.316;2023-05-24T10:06:35;17.30;99.90
21787;DHT22;11055;50.870;4.316;2023-05-24T10:09:04;17.60;99.90
21787;DHT22;11055;50.870;4.316;2023-05-24T10:11:35;17.60;99.90
21787;DHT22;11055;50.870;4.316;2023-05-24T10:14:05;17.60;99.90
21787;DHT22;11055;50.870;4.316;2023-05-24T10:16:34;17.90;99.90
21787;DHT22;11055;50.870;4.316;2023-05-24T10:19:00;17.60;99.90
21787;DHT22;11055;50.870;4.316;2023-05-24T10:21:28;17.70;99.90
21787;DHT22;11055;50.870;4.316;2023-05-24T10:23:58;17.90;99.90
21787;DHT22;11055;50.870;4.316;2023-05-24T10:26:25;17.60;99.90
21787;DHT22;11055;50.870;4.316;2023-05-24T10:28:58;17.00;99.90
21787;DHT22;11055;50.870;4.316;2023-05-24T10:31:31;17.10;99.90
21787;DHT22;11055;50.870;4.316;2023-05-24T10:33:59;17.30;99.90
21787;DHT22;11055;50.870;4.316;2023-05-24T10:36:25;17.60;99.90
21787;DHT22;11055;50.870;4.316;2023-05-24T10:38:51;17.80;99.90
21787;DHT22;11055;50.870;4.316;2023-05-24T10:41:17;18.10;99.90
21787;DHT22;11055;50.870;4.316;2023-05-24T10:43:45;18.20;99.90
21787;DHT22;11055;50.870;4.316;2023-05-24T10:46:14;18.50;99.90
21787;DHT22;11055;50.870;4.316;2023-05-24T10:48:57;18.80;99.90
21787;DHT22;11055;50.870;4.316;2023-05-24T10:51:29;18.90;99.90
21787;DHT22;11055;50.870;4.316;2023-05-24T10:54:17;19.00;99.90
21787;DHT22;11055;50.870;4.316;2023-05-24T10:56:48;18.00;99.90
21787;DHT22;11055;50.870;4.316;2023-05-24T11:01:58;18.60;99.90
21787;DHT22;11055;50.870;4.316;2023-05-24T11:04:25;18.80;99.90
21787;DHT22;11055;50.870;4.316;2023-05-24T11:07:02;18.60;99.90
21787;DHT22;11055;50.870;4.316;2023-05-24T11:09:28;18.80;99.90
21787;DHT22;11055;50.870;4.316;2023-05-24T11:11:57;19.00;99.90
21787;DHT22;11055;50.870;4.316;2023-05-24T11:14:28;18.90;99.90
21787;DHT22;11055;50.870;4.316;2023-05-24T11:16:54;19.10;99.90
21787;DHT22;11055;50.870;4.316;2023-05-24T11:19:21;19.30;99.90
21787;DHT22;11055;50.870;4.316;2023-05-24T11:21:49;19.60;99.90
21787;DHT22;11055;50.870;4.316;2023-05-24T11:24:19;19.60;98.20
21787;DHT22;11055;50.870;4.316;2023-05-24T11:26:45;19.60;98.90
21787;DHT22;11055;50.870;4.316;2023-05-24T11:29:14;19.50;96.20
21787;DHT22;11055;50.870;4.316;2023-05-24T11:31:50;19.20;96.30
21787;DHT22;11055;50.870;4.316;2023-05-24T11:34:17;19.00;96.00
21787;DHT22;11055;50.870;4.316;2023-05-24T11:36:44;19.10;97.00
21787;DHT22;11055;50.870;4.316;2023-05-24T11:39:12;19.40;96.60
21787;DHT22;11055;50.870;4.316;2023-05-24T11:41:39;19.40;96.80
21787;DHT22;11055;50.870;4.316;2023-05-24T11:44:08;19.60;97.70
21787;DHT22;11055;50.870;4.316;2023-05-24T11:46:35;20.00;97.00
21787;DHT22;11055;50.870;4.316;2023-05-24T11:49:01;19.90;96.90
21787;DHT22;11055;50.870;4.316;2023-05-24T11:51:32;19.60;97.60
21787;DHT22;11055;50.870;4.316;2023-05-24T11:53:58;19.40;98.60
21787;DHT22;11055;50.870;4.316;2023-05-24T11:56:25;19.50;99.00
21787;DHT22;11055;50.870;4.316;2023-05-24T11:59:01;19.50;98.90
21787;DHT22;11055;50.870;4.316;2023-05-24T12:01:28;19.60;97.60
21787;DHT22;11055;50.870;4.316;2023-05-24T12:03:54;19.90;97.30
21787;DHT22;11055;50.870;4.316;2023-05-24T12:06:20;19.80;96.60
21787;DHT22;11055;50.870;4.316;2023-05-24T12:08:47;19.60;97.70
21787;DHT22;11055;50.870;4.316;2023-05-24T12:11:13;19.60;98.10
21787;DHT22;11055;50.870;4.316;2023-05-24T12:13:39;19.60;98.10
21787;DHT22;11055;50.870;4.316;2023-05-24T12:16:05;19.80;97.10
21787;DHT22;11055;50.870;4.316;2023-05-24T12:18:31;19.80;97.60
21787;DHT22;11055;50.870;4.316;2023-05-24T12:20:57;20.10;97.30
21787;DHT22;11055;50.870;4.316;2023-05-24T12:23:25;20.40;96.20
21787;DHT22;11055;50.870;4.316;2023-05-24T12:26:02;20.80;96.10
21787;DHT22;11055;50.870;4.316;2023-05-24T12:28:33;21.50;95.30
21787;DHT22;11055;50.870;4.316;2023-05-24T12:31:01;21.80;94.80
21787;DHT22;11055;50.870;4.316;2023-05-24T12:33:27;21.70;93.40
21787;DHT22;11055;50.870;4.316;2023-05-24T12:35:53;21.10;94.30
21787;DHT22;11055;50.870;4.316;2023-05-24T12:38:19;20.50;95.60
21787;DHT22;11055;50.870;4.316;2023-05-24T12:40:52;20.20;96.50
21787;DHT22;11055;50.870;4.316;2023-05-24T12:43:19;19.80;96.80
21787;DHT22;11055;50.870;4.316;2023-05-24T12:45:45;19.70;96.60
21787;DHT22;11055;50.870;4.316;2023-05-24T12:48:11;19.90;97.40
21787;DHT22;11055;50.870;4.316;2023-05-24T12:50:37;20.10;97.10
21787;DHT22;11055;50.870;4.316;2023-05-24T12:53:03;20.20;95.80
21787;DHT22;11055;50.870;4.316;2023-05-24T12:55:29;20.40;95.80
21787;DHT22;11055;50.870;4.316;2023-05-24T12:57:55;20.40;96.00
21787;DHT22;11055;50.870;4.316;2023-05-24T13:00:23;19.80;96.30
21787;DHT22;11055;50.870;4.316;2023-05-24T13:02:52;19.70;97.50
21787;DHT22;11055;50.870;4.316;2023-05-24T13:05:23;19.70;97.20
21787;DHT22;11055;50.870;4.316;2023-05-24T13:07:50;19.60;96.90
21787;DHT22;11055;50.870;4.316;2023-05-24T13:10:16;19.80;96.60
21787;DHT22;11055;50.870;4.316;2023-05-24T13:12:44;20.10;96.70
21787;DHT22;11055;50.870;4.316;2023-05-24T13:15:10;20.10;95.80
21787;DHT22;11055;50.870;4.316;2023-05-24T13:17:36;19.70;95.60
21787;DHT22;11055;50.870;4.316;2023-05-24T13:20:04;19.30;96.90
21787;DHT22;11055;50.870;4.316;2023-05-24T13:22:32;19.20;96.90
21787;DHT22;11055;50.870;4.316;2023-05-24T13:24:58;19.10;97.40
21787;DHT22;11055;50.870;4.316;2023-05-24T13:27:23;19.10;97.90
21787;DHT22;11055;50.870;4.316;2023-05-24T13:29:49;19.20;98.10
21787;DHT22;11055;50.870;4.316;2023-05-24T13:32:15;19.50;98.70
21787;DHT22;11055;50.870;4.316;2023-05-24T13:34:41;19.60;97.00
21787;DHT22;11055;50.870;4.316;2023-05-24T13:37:06;19.30;96.80
21787;DHT22;11055;50.870;4.316;2023-05-24T13:39:33;19.30;96.60
21787;DHT22;11055;50.870;4.316;2023-05-24T13:42:00;19.40;97.20
21787;DHT22;11055;50.870;4.316;2023-05-24T13:44:26;19.40;97.70
21787;DHT22;11055;50.870;4.316;2023-05-24T13:46:52;19.20;96.90
21787;DHT22;11055;50.870;4.316;2023-05-24T13:49:18;19.20;96.90
21787;DHT22;11055;50.870;4.316;2023-05-24T13:51:45;19.30;97.00
21787;DHT22;11055;50.870;4.316;2023-05-24T13:54:11;19.20;97.50
21787;DHT22;11055;50.870;4.316;2023-05-24T13:56:38;19.50;97.80
21787;DHT22;11055;50.870;4.316;2023-05-24T13:59:05;19.10;98.20
21787;DHT22;11055;50.870;4.316;2023-05-24T14:01:32;19.10;97.60
21787;DHT22;11055;50.870;4.316;2023-05-24T14:04:01;19.20;98.30
21787;DHT22;11055;50.870;4.316;2023-05-24T14:06:27;19.10;97.30
21787;DHT22;11055;50.870;4.316;2023-05-24T14:08:53;19.00;97.80
21787;DHT22;11055;50.870;4.316;2023-05-24T14:11:18;18.90;98.50
21787;DHT22;11055;50.870;4.316;2023-05-24T14:13:44;18.80;98.40
21787;DHT22;11055;50.870;4.316;2023-05-24T14:16:10;18.60;98.50
21787;DHT22;11055;50.870;4.316;2023-05-24T14:18:36;18.50;98.80
21787;DHT22;11055;50.870;4.316;2023-05-24T14:21:02;18.40;99.30
21787;DHT22;11055;50.870;4.316;2023-05-24T14:23:28;18.60;99.90
21787;DHT22;11055;50.870;4.316;2023-05-24T14:25:56;18.40;99.10
21787;DHT22;11055;50.870;4.316;2023-05-24T14:28:22;18.40;99.70
21787;DHT22;11055;50.870;4.316;2023-05-24T14:30:48;18.40;99.90
21787;DHT22;11055;50.870;4.316;2023-05-24T14:33:14;18.20;99.90
21787;DHT22;11055;50.870;4.316;2023-05-24T14:35:40;18.20;99.90
21787;DHT22;11055;50.870;4.316;2023-05-24T14:38:06;18.10;99.90
21787;DHT22;11055;50.870;4.316;2023-05-24T14:40:33;18.00;99.90
21787;DHT22;11055;50.870;4.316;2023-05-24T14:43:01;18.00;99.90
21787;DHT22;11055;50.870;4.316;2023-05-24T14:45:27;18.00;99.90
21787;DHT22;11055;50.870;4.316;2023-05-24T14:47:53;18.10;99.90
21787;DHT22;11055;50.870;4.316;2023-05-24T14:50:18;18.20;99.90
21787;DHT22;11055;50.870;4.316;2023-05-24T14:52:44;18.30;99.90
21787;DHT22;11055;50.870;4.316;2023-05-24T14:55:10;18.30;99.90
21787;DHT22;11055;50.870;4.316;2023-05-24T14:57:35;18.10;99.90
21787;DHT22;11055;50.870;4.316;2023-05-24T15:00:02;18.10;99.90
21787;DHT22;11055;50.870;4.316;2023-05-24T15:02:28;17.90;99.90
21787;DHT22;11055;50.870;4.316;2023-05-24T15:04:53;17.80;99.90
21787;DHT22;11055;50.870;4.316;2023-05-24T15:07:19;17.90;99.90
21787;DHT22;11055;50.870;4.316;2023-05-24T15:09:45;17.90;99.90
21787;DHT22;11055;50.870;4.316;2023-05-24T15:12:11;18.00;99.90
21787;DHT22;11055;50.870;4.316;2023-05-24T15:14:37;18.00;99.90
21787;DHT22;11055;50.870;4.316;2023-05-24T15:17:03;18.10;99.90
21787;DHT22;11055;50.870;4.316;2023-05-24T15:19:29;18.10;99.90
21787;DHT22;11055;50.870;4.316;2023-05-24T15:21:54;18.00;99.90
21787;DHT22;11055;50.870;4.316;2023-05-24T15:24:20;17.90;99.90
21787;DHT22;11055;50.870;4.316;2023-05-24T15:26:45;17.90;99.90
21787;DHT22;11055;50.870;4.316;2023-05-24T15:29:11;18.00;99.90
21787;DHT22;11055;50.870;4.316;2023-05-24T15:31:37;18.20;99.90
21787;DHT22;11055;50.870;4.316;2023-05-24T15:34:03;18.30;99.90
21787;DHT22;11055;50.870;4.316;2023-05-24T15:36:30;18.30;99.90
21787;DHT22;11055;50.870;4.316;2023-05-24T15:38:57;18.30;99.90
21787;DHT22;11055;50.870;4.316;2023-05-24T15:41:23;18.30;99.90
21787;DHT22;11055;50.870;4.316;2023-05-24T15:43:51;18.40;99.90
21787;DHT22;11055;50.870;4.316;2023-05-24T15:46:19;18.60;99.90